Time;durP1;ratioP1;P1;durP2;ratioP2;P2;SDS_P1;SDS_P2;PMS_P1;PMS_P2;Temp;Humidity;BMP_temperature;BMP_pressure;BME280_temperature;BME280_humidity;BME280_pressure;Samples;Min_cycle;Max_cycle;Signal;HPM_P1;HPM_P2
2022/03/21 00:01:55;;;;;;;53.72;30.25;;;;;;;;;;6153458;23;20016;-88
2022/03/21 00:04:22;;;;;;;55.05;28.70;;;;;;;;;;6130650;23;20519;-88
2022/03/21 00:06:48;;;;;;;54.42;30.95;;;;;;;;;;6156083;23;20012;-90
2022/03/21 00:09:15;;;;;;;56.33;30.38;;;;;;;;;;6156906;23;20020;-89
2022/03/21 00:11:41;;;;;;;54.15;30.80;;;;;;;;;;6156050;23;20016;-89
2022/03/21 00:14:10;;;;;;;51.17;28.73;;;;;;;;;;6133161;23;20442;-88
2022/03/21 00:16:37;;;;;;;54.53;28.48;;;;;;;;;;6160842;23;20012;-89
2022/03/21 00:19:03;;;;;;;48.70;28.75;;;;;;;;;;6133807;23;20058;-90
2022/03/21 00:21:29;;;;;;;48.25;28.85;;;;;;;;;;6157948;23;20008;-89
2022/03/21 00:23:59;;;;;;;48.45;27.65;;;;;;;;;;6133190;23;20732;-90
2022/03/21 00:26:26;;;;;;;47.03;27.20;;;;;;;;;;6156839;23;20020;-90
2022/03/21 00:28:52;;;;;;;51.75;28.08;;;;;;;;;;6131862;23;20013;-89
2022/03/21 00:31:18;;;;;;;47.17;28.27;;;;;;;;;;6130595;23;20019;-89
2022/03/21 00:33:47;;;;;;;44.13;26.52;;;;;;;;;;6157207;23;20019;-89
2022/03/21 00:36:14;;;;;;;44.65;26.38;;;;;;;;;;6133012;23;20012;-89
2022/03/21 00:38:41;;;;;;;44.53;25.67;;;;;;;;;;6157152;23;20027;-89
2022/03/21 00:41:09;;;;;;;48.30;25.42;;;;;;;;;;6174687;23;20023;-88
2022/03/21 00:43:52;;;;;;;41.55;24.65;;;;;;;;;;6158224;23;20280;-89
2022/03/21 00:46:19;;;;;;;42.70;23.67;;;;;;;;;;6162142;23;20012;-90
2022/03/21 00:49:01;;;;;;;37.53;22.02;;;;;;;;;;6184625;23;20012;-89
2022/03/21 00:51:28;;;;;;;38.90;23.20;;;;;;;;;;6191015;23;20090;-88
2022/03/21 00:53:55;;;;;;;42.15;23.27;;;;;;;;;;6186513;23;20101;-90
2022/03/21 00:56:21;;;;;;;38.40;23.05;;;;;;;;;;6186107;23;20022;-89
2022/03/21 00:58:53;;;;;;;39.72;22.80;;;;;;;;;;6189688;23;20461;-89
2022/03/21 01:01:47;;;;;;;38.33;21.92;;;;;;;;;;6187692;23;20055;-90
2022/03/21 01:04:14;;;;;;;38.55;22.92;;;;;;;;;;6188587;23;20388;-90
2022/03/21 01:06:41;;;;;;;42.17;24.00;;;;;;;;;;6187951;23;20046;-90
2022/03/21 01:09:33;;;;;;;41.15;22.33;;;;;;;;;;6187900;23;20016;-89
2022/03/21 01:12:15;;;;;;;44.70;23.95;;;;;;;;;;6188420;23;20019;-89
2022/03/21 01:14:51;;;;;;;40.95;23.92;;;;;;;;;;6214798;23;20018;-89
2022/03/21 01:17:45;;;;;;;40.80;24.17;;;;;;;;;;6211130;23;20027;-90
2022/03/21 01:23:51;;;;;;;40.15;22.90;;;;;;;;;;6240303;23;20489;-89
2022/03/21 01:26:37;;;;;;;40.05;25.02;;;;;;;;;;6169632;23;20132;-90
2022/03/21 01:29:09;;;;;;;39.38;21.80;;;;;;;;;;6167474;23;20008;-90
2022/03/21 01:31:58;;;;;;;32.78;21.75;;;;;;;;;;6191078;23;20027;-89
2022/03/21 01:34:38;;;;;;;47.15;25.02;;;;;;;;;;6187935;23;20019;-90
2022/03/21 01:37:21;;;;;;;40.78;23.90;;;;;;;;;;6166125;23;20031;-90
2022/03/21 01:39:59;;;;;;;37.70;22.63;;;;;;;;;;6237348;23;20035;-90
2022/03/21 01:42:47;;;;;;;38.20;22.55;;;;;;;;;;6216500;23;20016;-90
2022/03/21 01:45:43;;;;;;;41.88;21.83;;;;;;;;;;6168626;23;20078;-90
2022/03/21 01:49:19;;;;;;;40.35;24.17;;;;;;;;;;6231984;23;20016;-90
2022/03/21 01:52:07;;;;;;;42.65;23.30;;;;;;;;;;6178559;23;20028;-90
2022/03/21 01:57:28;;;;;;;41.40;23.65;;;;;;;;;;6151285;23;20021;-90
2022/03/21 02:00:11;;;;;;;42.95;24.15;;;;;;;;;;6128270;23;20015;-90
2022/03/21 02:03:03;;;;;;;45.88;24.15;;;;;;;;;;6178639;23;20096;-90
2022/03/21 02:06:02;;;;;;;42.20;24.05;;;;;;;;;;6066800;23;20015;-88
2022/03/21 02:08:37;;;;;;;41.28;23.92;;;;;;;;;;6039734;23;20097;-90
2022/03/21 02:11:39;;;;;;;42.10;24.08;;;;;;;;;;6034945;23;20022;-90
2022/03/21 02:22:07;;;;;;;38.83;22.58;;;;;;;;;;6086324;23;20387;-89
2022/03/21 02:24:53;;;;;;;44.55;22.70;;;;;;;;;;6161664;23;20044;-90
2022/03/21 02:27:35;;;;;;;39.90;22.58;;;;;;;;;;6156725;23;20009;-90
2022/03/21 02:30:41;;;;;;;40.05;22.60;;;;;;;;;;6156692;23;20779;-91
2022/03/21 02:33:10;;;;;;;45.42;23.67;;;;;;;;;;6126425;23;20009;-90
2022/03/21 02:35:46;;;;;;;39.97;22.98;;;;;;;;;;6157309;23;20020;-89
2022/03/21 02:38:14;;;;;;;42.15;22.75;;;;;;;;;;6155190;23;20020;-90
2022/03/21 02:40:43;;;;;;;37.67;22.25;;;;;;;;;;6157287;23;20675;-90
2022/03/21 02:43:25;;;;;;;40.38;22.70;;;;;;;;;;6153318;23;20020;-91
2022/03/21 02:46:08;;;;;;;43.05;22.35;;;;;;;;;;6176245;23;20009;-90
2022/03/21 02:48:55;;;;;;;41.40;22.85;;;;;;;;;;6155387;23;20163;-90
2022/03/21 02:51:26;;;;;;;41.80;22.88;;;;;;;;;;6156971;23;20051;-91
2022/03/21 02:54:02;;;;;;;35.88;21.80;;;;;;;;;;6156555;23;20385;-90
2022/03/21 02:56:31;;;;;;;38.15;21.25;;;;;;;;;;6130151;23;20067;-89
2022/03/21 02:58:58;;;;;;;35.08;21.35;;;;;;;;;;6178211;23;20604;-89
2022/03/21 03:01:59;;;;;;;37.80;21.40;;;;;;;;;;6163035;23;20024;-90
2022/03/21 03:04:55;;;;;;;35.67;20.63;;;;;;;;;;6126671;23;20021;-90
2022/03/21 03:07:55;;;;;;;36.30;20.65;;;;;;;;;;6142297;23;20244;-90
2022/03/21 03:10:26;;;;;;;36.00;21.10;;;;;;;;;;6123653;23;20427;-90
2022/03/21 03:13:11;;;;;;;42.33;22.15;;;;;;;;;;6104113;23;20041;-91
2022/03/21 03:16:14;;;;;;;38.85;21.70;;;;;;;;;;6126090;23;20084;-90
2022/03/21 03:19:04;;;;;;;40.85;21.98;;;;;;;;;;6125309;23;20083;-90
2022/03/21 03:21:51;;;;;;;41.17;21.58;;;;;;;;;;6116061;23;20087;-89
2022/03/21 03:24:32;;;;;;;37.17;19.88;;;;;;;;;;6128219;23;20021;-89
2022/03/21 03:27:01;;;;;;;34.08;19.98;;;;;;;;;;6102656;23;20009;-90
2022/03/21 03:29:37;;;;;;;38.97;21.05;;;;;;;;;;6103845;23;20088;-90
2022/03/21 03:32:07;;;;;;;37.13;20.70;;;;;;;;;;6125844;23;20012;-90
2022/03/21 03:34:34;;;;;;;37.25;21.75;;;;;;;;;;6143239;23;20008;-90
2022/03/21 03:37:00;;;;;;;37.33;20.15;;;;;;;;;;6187048;23;20012;-91
2022/03/21 03:40:09;;;;;;;;;;;;;;;;;;;;;
2022/03/21 03:42:42;;;;;;;38.10;20.38;;;;;;;;;;6237824;23;20016;-91
2022/03/21 03:45:25;;;;;;;38.28;19.77;;;;;;;;;;6186752;23;20091;-90
2022/03/21 03:48:02;;;;;;;38.33;20.90;;;;;;;;;;6198495;23;20457;-90
2022/03/21 03:50:41;;;;;;;40.67;21.13;;;;;;;;;;6212832;23;20077;-90
2022/03/21 03:53:25;;;;;;;43.33;22.45;;;;;;;;;;6211294;23;20012;-90
2022/03/21 03:55:55;;;;;;;39.00;20.80;;;;;;;;;;6163916;23;20042;-90
2022/03/21 04:02:15;;;;;;;35.33;20.67;;;;;;;;;;6087825;23;20101;-90
2022/03/21 04:04:45;;;;;;;37.55;19.88;;;;;;;;;;6175568;23;20536;-90
2022/03/21 04:07:13;;;;;;;36.25;21.88;;;;;;;;;;6187337;23;20016;-90
2022/03/21 04:09:46;;;;;;;38.65;20.08;;;;;;;;;;6187599;23;20008;-90
2022/03/21 04:12:15;;;;;;;41.58;20.88;;;;;;;;;;6186388;23;20322;-90
2022/03/21 04:14:43;;;;;;;40.35;21.67;;;;;;;;;;6186886;23;20047;-90
2022/03/21 04:17:15;;;;;;;41.58;21.77;;;;;;;;;;6160387;23;20477;-90
2022/03/21 04:19:45;;;;;;;39.97;22.17;;;;;;;;;;6162827;23;20020;-90
2022/03/21 04:22:12;;;;;;;34.88;20.80;;;;;;;;;;6189975;23;20016;-90
2022/03/21 04:24:47;;;;;;;39.00;22.17;;;;;;;;;;6188033;23;20650;-90
2022/03/21 04:27:16;;;;;;;42.45;22.35;;;;;;;;;;6187435;23;20365;-90
2022/03/21 04:29:53;;;;;;;41.35;21.83;;;;;;;;;;6163442;23;20013;-90
2022/03/21 04:32:28;;;;;;;40.20;22.50;;;;;;;;;;6163279;23;20012;-90
2022/03/21 04:35:13;;;;;;;40.78;21.38;;;;;;;;;;6166137;23;20470;-90
2022/03/21 04:37:46;;;;;;;42.97;22.27;;;;;;;;;;6187237;23;20527;-90
2022/03/21 04:44:18;;;;;;;35.50;18.83;;;;;;;;;;6146194;23;20037;-91
2022/03/21 04:47:22;;;;;;;32.78;18.30;;;;;;;;;;6081262;23;20025;-91
2022/03/21 04:50:45;;;;;;;30.00;17.58;;;;;;;;;;5972788;24;20031;-88
2022/03/21 04:57:05;;;;;;;34.72;18.85;;;;;;;;;;5847798;24;20131;-90
2022/03/21 05:03:51;;;;;;;36.15;18.63;;;;;;;;;;5862668;24;20082;-90
2022/03/21 05:10:10;;;;;;;38.03;19.38;;;;;;;;;;5783449;24;20270;-90
2022/03/21 05:16:13;;;;;;;36.70;20.05;;;;;;;;;;5861471;24;20027;-90
2022/03/21 05:18:57;;;;;;;34.85;19.95;;;;;;;;;;5859048;24;20033;-90
2022/03/21 05:21:37;;;;;;;44.38;20.40;;;;;;;;;;5837816;24;20019;-90
2022/03/21 05:36:26;;;;;;;29.00;15.15;;;;;;;;;;6060187;23;20057;-90
2022/03/21 05:40:31;;;;;;;27.17;15.15;;;;;;;;;;6010316;23;20020;-90
2022/03/21 05:42:25;;;;;;;27.25;15.57;;;;;;;;;;6010892;23;20376;-89
2022/03/21 05:44:52;;;;;;;33.90;17.90;;;;;;;;;;6168903;23;20095;-90
2022/03/21 05:47:21;;;;;;;38.65;19.63;;;;;;;;;;6188494;23;20063;-90
2022/03/21 05:49:51;;;;;;;42.22;20.98;;;;;;;;;;6190121;23;20066;-90
2022/03/21 05:52:17;;;;;;;39.30;20.92;;;;;;;;;;6164626;23;20537;-90
2022/03/21 05:54:44;;;;;;;34.75;20.77;;;;;;;;;;6189333;23;20027;-90
2022/03/21 05:57:21;;;;;;;39.40;20.50;;;;;;;;;;6190191;23;20402;-90
2022/03/21 06:02:40;;;;;;;48.53;24.70;;;;;;;;;;6214162;23;20070;-90
2022/03/21 06:05:15;;;;;;;51.17;24.02;;;;;;;;;;6190833;23;20016;-89
2022/03/21 06:07:45;;;;;;;42.88;22.63;;;;;;;;;;6190777;23;20016;-89
2022/03/21 06:10:18;;;;;;;46.65;24.15;;;;;;;;;;6189432;23;20074;-89
2022/03/21 06:12:50;;;;;;;45.25;22.63;;;;;;;;;;6189459;23;20023;-89
2022/03/21 06:15:19;;;;;;;44.55;23.20;;;;;;;;;;6163150;23;20155;-89
2022/03/21 06:18:14;;;;;;;50.40;26.00;;;;;;;;;;6189179;23;20077;-89
2022/03/21 06:21:47;;;;;;;;;;;;;;;;;;;;;
